x

Columbia River Bar - 20nm West Of Columbia River Mouth (46029) Wave Buoy

11:50am - Tue 25th Nov 2014 All times are PST. -8 hours from GMT.

  • Sig Wave height 9.2ft
  • Swell Direction
  • Peak Period 13s
  • Average Period 7s
  • Wind
    22mph, 25mph gusts
  • Sea Temp 55°f
  • 空気 Temp 57°f
  • Sea Pressure 1025.1mb
  • Columbia River Bar - 20nm West Of Columbia River Mouth
  • Columbia River Bar - 20nm West Of Columbia River Mouth

More Historic Weather Station data

Upgrade to MSW Pro to gain access to the past 30 days of data for over 8000 Wavebouys and Weather Stations around the globe.

Join Pro

Comparision Forecast

View Surf forecast
   
Tue 11/25 11:50am 9ft 13s 7s 22 25 mph 1025.1mb 55f 57f
10:50am 9ft 12s 6s 22 27 mph 1025.1mb 55f 57f
9:50am 9ft 13s 7s 22 27 mph 1024.7mb 55f 57f
8:50am 8.5ft 13s 7s 20 25 mph 1024.4mb 55f 57f
7:50am 9ft 12s 7s 20 22 mph 1024mb 55f 57f
6:50am 9ft 12s 7s 20 27 mph 1023.8mb 55f 56f
5:50am 9ft 7s 6s 22 27 mph 1023.2mb 55f 56f
4:50am 9.5ft 13s 7s 20 27 mph 1023.1mb 55f 56f
3:50am 10ft 13s 7s 22 27 mph 1023.1mb 55f 56f
2:50am 10ft 12s 7s 18 22 mph 1022.9mb 56f 56f
1:50am 9ft 11s 7s 18 20 mph 1022.9mb 56f 56f
12:50am 10ft 13s 7s 18 20 mph 1023.2mb 56f 56f
Mon 11/24 11:50pm 9.5ft 12s 7s 16 20 mph 1023.3mb 56f 56f
10:50pm 10ft 13s 7s 18 22 mph 1022.8mb 56f 56f
9:50pm 10.5ft 12s 8s 18 22 mph 1022.4mb 56f 56f
8:50pm 9.5ft 13s 7s 18 20 mph 1022.3mb 55f 56f
7:50pm 10ft 12s 7s 20 22 mph 1021.8mb 56f 56f
6:50pm 9.5ft 14s 6s 25 29 mph 1021.1mb 56f 56f
5:50pm 10ft 11s 6s 27 31 mph 1021.4mb 56f 55f
4:50pm 10ft 14s 6s 27 31 mph 1021.4mb 56f 55f
3:50pm 11ft 14s 7s 29 36 mph 1021.3mb 56f 54f
2:50pm 9.5ft 14s 7s 27 34 mph 1021.7mb 56f 54f
1:50pm 8.5ft 14s 7s 27 31 mph 1022.6mb 55f 55f
12:50pm 9.5ft 13s 8s 25 29 mph 1023.1mb 55f 55f
11:50am 9.5ft 14s 8s 25 29 mph 1023.9mb 55f 55f
10:50am 10ft 13s 8s 18 22 mph 1025.6mb 55f 55f
9:50am 9.5ft 12s 8s 18 22 mph 1025.9mb 55f 55f
8:50am 10ft 14s 8s 16 18 mph 1025.9mb 55f 55f
7:50am 10.5ft 13s 9s 16 18 mph 1025.5mb 55f 55f
6:50am 10ft 12s 8s 13 16 mph 1025.8mb 55f 55f
5:50am 11ft 12s 8s 13 18 mph 1025.7mb 56f 55f
4:50am 11ft 14s 9s 16 18 mph 1025.9mb 55f 54f
3:50am 11.5ft 12s 9s 13 20 mph 1026.2mb 55f 54f
2:50am 13ft 13s 9s 11 18 mph 1026.5mb 55f 53f
1:50am 12ft 14s 9s 13 18 mph 1026.6mb 55f 53f
12:50am 14ft 14s 10s 11 16 mph 1026.9mb 55f 54f
Sun 11/23 11:50pm 13.5ft 15s 10s 9 13 mph 1027.1mb 55f 55f
10:50pm 12ft 13s 10s 9 11 mph 1026.6mb 55f 54f
9:50pm 12.5ft 14s 10s 4 9 mph 1026.6mb 55f 54f
8:50pm 13.5ft 14s 10s 2 7 mph 1026.2mb 55f 54f
7:50pm 14ft 13s 9s 2 7 mph 1026.2mb 55f 54f
6:50pm 13ft 14s 9s 4 9 mph 1026.1mb 55f 55f
5:50pm 13.5ft 14s 9s 7 9 mph 1025.6mb 55f 55f
4:50pm 14ft 14s 9s 7 11 mph 1025.1mb 55f 55f
3:50pm 13.5ft 13s 8s 11 16 mph 1024.4mb 55f 55f
2:50pm 13.5ft 11s 8s 11 13 mph 1024.1mb 55f 55f
1:50pm 13.5ft 13s 8s 13 18 mph 1023.5mb 55f 56f
12:50pm 14ft 12s 8s 13 18 mph 1023.1mb 55f 56f
11:50am 12ft 11s 7s 18 22 mph 1022.7mb 55f 56f
10:50am 13ft 13s 7s 22 27 mph 1022.6mb 55f 55f
9:50am 12ft 13s 7s 29 36 mph 1021.4mb 55f 56f
8:50am 13ft 13s 8s 29 34 mph 1020.9mb 55f 56f
7:50am 13ft 14s  -  29 36 mph 1021.2mb 55f 56f
6:50am 11ft 14s 8s 29 36 mph 1021.3mb 55f 56f
5:50am 12ft 14s 8s 25 31 mph 1021.6mb 55f 56f
4:50am 11ft 14s 8s 22 29 mph 1021.6mb 55f 56f
3:50am 10ft 14s 7s 20 25 mph 1021.8mb 55f 56f
2:50am 11.5ft 13s 8s 20 25 mph 1022.1mb 55f 56f
1:50am 11ft 11s 8s 20 25 mph 1021.9mb 55f 55f
12:50am 13ft 11s 8s 20 22 mph 1021.9mb 55f 55f
Sat 11/22 11:50pm 11.5ft 11s 8s 20 22 mph 1021.7mb 55f 55f
10:50pm 12.5ft 14s 8s 18 22 mph 1021.4mb 55f 55f
9:50pm 12ft 14s 8s 18 20 mph 1020.9mb 55f 55f
8:50pm 12ft 13s 8s 16 20 mph 1020.4mb 56f 55f
7:50pm 13.5ft 12s 9s 16 20 mph 1019.7mb 56f 55f
6:50pm 12ft 14s 9s 16 20 mph 1019.2mb 56f 55f
5:50pm 11.5ft 13s 9s 11 20 mph 1018.5mb 56f 54f
4:50pm 11.5ft 15s 9s 11 16 mph 1017.9mb 55f 55f
3:50pm 13ft 16s 9s 11 16 mph 1016.8mb 55f 55f
2:50pm 13ft 16s 9s 18 22 mph 1016mb 56f 55f
1:50pm 13ft 16s 9s 16 20 mph 1015mb 55f 54f
12:50pm 12ft 16s 9s 16 18 mph 1013.6mb 55f 53f
11:50am 12ft 16s 9s 16 20 mph 1012.6mb 55f 53f
10:50am 11.5ft 16s 7s 18 25 mph 1011.4mb 55f 50f
9:50am 11.5ft 16s 7s 22 27 mph 1009.2mb 55f 52f
8:50am 11ft 11s 7s 20 25 mph 1008mb 55f 50f
7:50am 11.5ft 10s 8s 18 22 mph 1007mb 55f 51f
6:50am 10ft 9s 7s 25 29 mph 1006.3mb 55f 49f
5:50am 11.5ft 10s 8s 18 22 mph 1005.7mb 55f 55f
4:50am 11ft 9s 8s 13 18 mph 1005.8mb 55f 55f
3:50am 10.5ft 9s 7s 16 20 mph 1005.6mb 55f 55f
2:50am 12ft 10s 8s 18 20 mph 1005.2mb 55f 54f
1:50am 11.5ft 10s 8s 16 20 mph 1004.3mb 55f 54f
12:50am 13ft 10s 8s 16 20 mph 1003.6mb 55f 54f
Fri 11/21 11:50pm 14ft 11s 8s 20 25 mph 1002.8mb 55f 54f
10:50pm 14.5ft 10s 8s 18 25 mph 1002mb 55f 53f
9:50pm 14ft 10s 8s 20 25 mph 1001mb 55f 54f